Time;durP1;ratioP1;P1;durP2;ratioP2;P2;SDS_P1;SDS_P2;PMS_P1;PMS_P2;Temp;Humidity;BMP_temperature;BMP_pressure;BME280_temperature;BME280_humidity;BME280_pressure;Samples;Min_cycle;Max_cycle;Signal;HPM_P1;HPM_P2
2021/03/15 00:00:54;;;;;;;;;;;16.40;62.80;;;;;;5044729;28;19990;-76
2021/03/15 00:03:20;;;;;;;;;;;16.40;62.90;;;;;;5063303;28;19947;-73
2021/03/15 00:05:45;;;;;;;;;;;16.40;62.90;;;;;;5048494;28;19917;-74
2021/03/15 00:08:11;;;;;;;;;;;16.40;62.90;;;;;;5066860;28;19909;-74
2021/03/15 00:10:37;;;;;;;;;;;16.40;62.90;;;;;;5047914;28;19909;-75
2021/03/15 00:13:02;;;;;;;;;;;16.40;62.90;;;;;;5064694;28;20254;-76
2021/03/15 00:15:28;;;;;;;;;;;16.40;62.80;;;;;;5040983;28;19999;-74
2021/03/15 00:17:53;;;;;;;;;;;16.40;62.80;;;;;;5062662;28;20011;-75
2021/03/15 00:20:20;;;;;;;;;;;16.40;62.80;;;;;;5045052;28;19959;-75
2021/03/15 00:22:46;;;;;;;;;;;16.40;62.80;;;;;;5046396;28;19965;-75
2021/03/15 00:25:12;;;;;;;;;;;16.30;62.80;;;;;;5065082;28;19927;-75
2021/03/15 00:27:39;;;;;;;;;;;16.40;62.80;;;;;;5063472;28;19917;-76
2021/03/15 00:30:05;;;;;;;;;;;16.40;62.80;;;;;;5044087;28;19951;-75
2021/03/15 00:32:38;;;;;;;;;;;16.40;62.80;;;;;;5060747;28;19916;-76
2021/03/15 00:35:04;;;;;;;;;;;16.40;62.90;;;;;;5070822;28;19939;-75
2021/03/15 00:37:30;;;;;;;;;;;16.40;62.80;;;;;;5065534;28;20362;-76
2021/03/15 00:39:55;;;;;;;;;;;16.40;62.90;;;;;;5067442;28;19939;-76
2021/03/15 00:42:21;;;;;;;;;;;16.30;62.80;;;;;;5063072;28;19947;-75
2021/03/15 00:44:46;;;;;;;;;;;16.40;62.80;;;;;;5060020;28;19920;-75
2021/03/15 00:47:12;;;;;;;;;;;16.40;62.80;;;;;;5059343;28;20031;-75
2021/03/15 00:49:37;;;;;;;;;;;16.40;62.80;;;;;;5044452;28;20285;-75
2021/03/15 00:52:03;;;;;;;;;;;16.30;62.80;;;;;;5069101;28;19908;-74
2021/03/15 00:54:29;;;;;;;;;;;16.40;62.80;;;;;;5066281;28;19986;-76
2021/03/15 00:56:54;;;;;;;;;;;16.30;62.80;;;;;;5065245;28;19913;-75
2021/03/15 00:59:19;;;;;;;;;;;16.30;62.80;;;;;;5043168;28;19920;-75
2021/03/15 01:01:45;;;;;;;;;;;16.30;62.90;;;;;;5059437;28;19920;-75
2021/03/15 01:04:12;;;;;;;;;;;16.30;62.90;;;;;;5064017;28;19908;-75
2021/03/15 01:06:42;;;;;;;;;;;16.40;62.80;;;;;;5049969;28;20261;-74
2021/03/15 01:09:08;;;;;;;;;;;16.30;62.90;;;;;;5047201;28;19908;-74
2021/03/15 01:11:34;;;;;;;;;;;16.40;62.90;;;;;;5063981;28;19928;-75
2021/03/15 01:13:59;;;;;;;;;;;16.30;62.90;;;;;;5058992;28;19916;-74
2021/03/15 01:16:25;;;;;;;;;;;16.40;62.90;;;;;;5061411;28;19909;-75
2021/03/15 01:18:50;;;;;;;;;;;16.30;62.80;;;;;;5060905;28;21382;-75
2021/03/15 01:21:21;;;;;;;;;;;16.30;62.80;;;;;;5065485;28;19913;-75
2021/03/15 01:23:49;;;;;;;;;;;16.30;62.90;;;;;;5061692;28;20350;-75
2021/03/15 01:26:14;;;;;;;;;;;16.30;62.80;;;;;;5063960;28;19931;-75
2021/03/15 01:28:40;;;;;;;;;;;16.40;62.80;;;;;;5059133;28;19909;-75
2021/03/15 01:31:11;;;;;;;;;;;16.30;62.80;;;;;;5055071;28;19920;-82
2021/03/15 01:33:37;;;;;;;;;;;16.40;62.80;;;;;;5058171;28;20011;-76
2021/03/15 01:36:03;;;;;;;;;;;16.30;62.80;;;;;;5060215;28;20000;-74
2021/03/15 01:38:28;;;;;;;;;;;16.30;62.90;;;;;;5062506;28;19917;-75
2021/03/15 01:40:54;;;;;;;;;;;16.30;62.80;;;;;;5072464;28;20079;-75
2021/03/15 01:43:19;;;;;;;;;;;16.30;62.80;;;;;;5046055;28;20562;-74
2021/03/15 01:45:45;;;;;;;;;;;16.30;62.90;;;;;;5039383;28;20318;-74
2021/03/15 01:48:12;;;;;;;;;;;16.30;62.90;;;;;;5041637;28;20404;-74
2021/03/15 01:50:42;;;;;;;;;;;16.30;62.90;;;;;;5047808;28;19935;-74
2021/03/15 01:53:08;;;;;;;;;;;16.30;62.90;;;;;;5046513;28;19908;-74
2021/03/15 01:55:33;;;;;;;;;;;16.30;62.80;;;;;;5064791;28;19917;-76
2021/03/15 01:57:59;;;;;;;;;;;16.30;62.80;;;;;;5059756;28;19925;-74
2021/03/15 02:00:25;;;;;;;;;;;16.30;62.90;;;;;;5062326;28;19925;-75
2021/03/15 02:02:53;;;;;;;;;;;16.30;62.80;;;;;;5043173;28;20404;-74
2021/03/15 02:05:19;;;;;;;;;;;16.30;62.80;;;;;;5064132;28;19961;-75
2021/03/15 02:07:44;;;;;;;;;;;16.30;62.90;;;;;;5064351;28;19925;-75
2021/03/15 02:10:10;;;;;;;;;;;16.30;62.90;;;;;;5063630;28;19909;-75
2021/03/15 02:12:54;;;;;;;;;;;16.30;62.80;;;;;;5043303;28;19917;-74
2021/03/15 02:15:38;;;;;;;;;;;16.30;62.80;;;;;;5057197;28;20610;-75
2021/03/15 02:18:24;;;;;;;;;;;16.30;62.90;;;;;;5040594;28;20040;-75
2021/03/15 02:21:08;;;;;;;;;;;16.30;62.80;;;;;;5045143;28;20250;-75
2021/03/15 02:23:46;;;;;;;;;;;16.30;62.80;;;;;;5061431;28;19927;-76
2021/03/15 02:26:15;;;;;;;;;;;16.30;62.80;;;;;;5078123;28;19908;-74
2021/03/15 02:28:47;;;;;;;;;;;16.30;62.80;;;;;;5055796;28;19921;-72
2021/03/15 02:31:24;;;;;;;;;;;16.30;62.80;;;;;;5055964;28;20330;-71
2021/03/15 02:34:08;;;;;;;;;;;16.30;62.80;;;;;;5059771;28;19944;-72
2021/03/15 02:36:35;;;;;;;;;;;16.30;62.90;;;;;;5078290;28;19908;-72
2021/03/15 02:39:01;;;;;;;;;;;16.30;62.90;;;;;;5064077;28;20281;-72
2021/03/15 02:41:27;;;;;;;;;;;16.30;62.90;;;;;;5045607;28;19936;-75
2021/03/15 02:44:00;;;;;;;;;;;16.30;62.80;;;;;;5059121;28;19916;-72
2021/03/15 02:46:28;;;;;;;;;;;16.30;62.90;;;;;;5039952;28;19966;-73
2021/03/15 02:48:55;;;;;;;;;;;16.30;62.90;;;;;;5062513;28;19982;-72
2021/03/15 02:51:24;;;;;;;;;;;16.30;62.90;;;;;;5053044;28;20361;-71
2021/03/15 02:53:50;;;;;;;;;;;16.30;62.90;;;;;;5043475;28;19909;-71
2021/03/15 02:56:18;;;;;;;;;;;16.30;62.90;;;;;;5083814;28;19924;-72
2021/03/15 02:58:45;;;;;;;;;;;16.30;62.90;;;;;;5044857;28;19936;-72
2021/03/15 03:01:11;;;;;;;;;;;16.30;62.90;;;;;;5058699;28;19915;-72
2021/03/15 03:03:37;;;;;;;;;;;16.30;62.90;;;;;;5061536;28;19932;-72
2021/03/15 03:06:04;;;;;;;;;;;16.30;62.90;;;;;;5054047;28;19951;-72
2021/03/15 03:08:30;;;;;;;;;;;16.30;62.90;;;;;;5058133;28;19909;-72
2021/03/15 03:10:56;;;;;;;;;;;16.30;62.90;;;;;;5037669;28;19915;-72
2021/03/15 03:13:23;;;;;;;;;;;16.30;62.90;;;;;;5058384;28;19916;-73
2021/03/15 03:15:50;;;;;;;;;;;16.30;62.90;;;;;;5043022;28;19967;-72
2021/03/15 03:18:16;;;;;;;;;;;16.30;62.90;;;;;;5060810;28;19916;-72
2021/03/15 03:20:43;;;;;;;;;;;16.30;62.90;;;;;;5042100;28;19966;-74
2021/03/15 03:23:09;;;;;;;;;;;16.30;62.90;;;;;;5052129;28;20235;-72
2021/03/15 03:25:35;;;;;;;;;;;16.30;62.90;;;;;;5061949;28;20007;-72
2021/03/15 03:28:01;;;;;;;;;;;16.30;62.90;;;;;;5048354;28;19927;-73
2021/03/15 03:30:37;;;;;;;;;;;16.30;62.90;;;;;;5063750;28;19927;-74
2021/03/15 03:33:04;;;;;;;;;;;16.30;62.90;;;;;;5064509;28;19909;-72
2021/03/15 03:35:30;;;;;;;;;;;16.30;62.90;;;;;;5048694;28;19913;-73
2021/03/15 03:37:56;;;;;;;;;;;16.30;62.90;;;;;;5053066;28;20062;-73
2021/03/15 03:40:22;;;;;;;;;;;16.30;62.90;;;;;;5077097;28;19987;-73
2021/03/15 03:42:47;;;;;;;;;;;16.30;62.90;;;;;;5043343;28;20016;-73
2021/03/15 03:45:13;;;;;;;;;;;16.30;62.90;;;;;;5040572;28;20643;-72
2021/03/15 03:47:40;;;;;;;;;;;16.30;62.90;;;;;;5046711;28;20378;-74
2021/03/15 03:50:08;;;;;;;;;;;16.30;62.90;;;;;;5045105;28;19913;-72
2021/03/15 03:52:35;;;;;;;;;;;16.30;62.90;;;;;;5040029;28;20339;-72
2021/03/15 03:55:02;;;;;;;;;;;16.30;62.90;;;;;;5043059;28;19949;-73
2021/03/15 03:57:31;;;;;;;;;;;16.30;62.90;;;;;;5048290;28;19963;-73
2021/03/15 03:59:57;;;;;;;;;;;16.30;62.90;;;;;;5047474;28;20274;-74
2021/03/15 04:02:24;;;;;;;;;;;16.30;62.90;;;;;;5042938;28;20354;-73
2021/03/15 04:04:54;;;;;;;;;;;16.30;62.90;;;;;;5051405;28;20301;-72
2021/03/15 04:07:24;;;;;;;;;;;16.30;62.90;;;;;;5038628;28;19909;-73
2021/03/15 04:09:52;;;;;;;;;;;16.30;62.80;;;;;;5041329;28;19917;-72
2021/03/15 04:12:20;;;;;;;;;;;16.30;62.90;;;;;;5039493;28;19905;-73
2021/03/15 04:14:49;;;;;;;;;;;16.30;62.90;;;;;;5042816;28;19917;-73
2021/03/15 04:17:19;;;;;;;;;;;16.30;62.90;;;;;;5044724;28;19987;-73
2021/03/15 04:19:56;;;;;;;;;;;16.30;62.90;;;;;;5045294;28;19925;-73
2021/03/15 04:22:24;;;;;;;;;;;16.30;62.90;;;;;;5037502;28;19905;-73
2021/03/15 04:24:50;;;;;;;;;;;16.30;62.80;;;;;;5040130;28;19910;-72
2021/03/15 04:27:16;;;;;;;;;;;16.30;62.80;;;;;;5050622;28;19908;-73
2021/03/15 04:29:42;;;;;;;;;;;16.30;62.80;;;;;;5041910;28;19936;-73
2021/03/15 04:32:08;;;;;;;;;;;16.30;62.90;;;;;;5046290;28;19912;-73
2021/03/15 04:34:34;;;;;;;;;;;16.30;62.80;;;;;;5047868;28;20254;-73
2021/03/15 04:37:01;;;;;;;;;;;16.30;62.80;;;;;;5038252;28;19913;-73
2021/03/15 04:39:27;;;;;;;;;;;16.30;62.90;;;;;;5059624;28;19995;-74
2021/03/15 04:41:53;;;;;;;;;;;16.30;62.80;;;;;;5062696;28;20074;-73
2021/03/15 04:44:19;;;;;;;;;;;16.30;62.80;;;;;;5061345;28;20004;-73
2021/03/15 04:46:44;;;;;;;;;;;16.30;62.80;;;;;;5062343;28;19917;-73
2021/03/15 04:49:11;;;;;;;;;;;16.30;62.80;;;;;;5062633;28;19909;-73
2021/03/15 04:51:37;;;;;;;;;;;16.30;62.90;;;;;;5069744;28;19912;-73
2021/03/15 04:54:03;;;;;;;;;;;16.20;62.90;;;;;;5059689;28;19956;-72
2021/03/15 04:56:29;;;;;;;;;;;16.30;62.80;;;;;;5042333;28;19909;-73
2021/03/15 04:58:55;;;;;;;;;;;16.30;62.80;;;;;;5065216;28;19982;-73
2021/03/15 05:01:21;;;;;;;;;;;16.30;62.80;;;;;;5057541;28;19913;-72
2021/03/15 05:03:50;;;;;;;;;;;16.30;62.80;;;;;;5041091;28;19916;-74
2021/03/15 05:06:17;;;;;;;;;;;16.30;62.80;;;;;;5050780;28;20231;-72
2021/03/15 05:08:47;;;;;;;;;;;16.30;62.80;;;;;;5063817;28;19916;-72
2021/03/15 05:11:12;;;;;;;;;;;16.20;62.80;;;;;;5066392;28;19953;-73
2021/03/15 05:13:39;;;;;;;;;;;16.20;62.80;;;;;;5050485;28;19913;-73
2021/03/15 05:16:05;;;;;;;;;;;16.20;62.80;;;;;;5047041;28;19920;-73
2021/03/15 05:18:31;;;;;;;;;;;16.30;62.80;;;;;;5069444;28;19928;-72
2021/03/15 05:20:57;;;;;;;;;;;16.30;62.80;;;;;;5059540;28;19909;-73
2021/03/15 05:23:23;;;;;;;;;;;16.20;62.80;;;;;;5056293;28;19917;-75
2021/03/15 05:25:50;;;;;;;;;;;16.30;62.80;;;;;;5062146;28;19908;-73
2021/03/15 05:28:15;;;;;;;;;;;16.30;62.80;;;;;;5063618;28;20334;-72
2021/03/15 05:30:42;;;;;;;;;;;16.30;62.80;;;;;;5068847;28;19973;-73
2021/03/15 05:33:13;;;;;;;;;;;16.30;62.80;;;;;;5077626;28;19961;-73
2021/03/15 05:35:40;;;;;;;;;;;16.30;62.80;;;;;;5067640;28;19947;-73
2021/03/15 05:38:05;;;;;;;;;;;16.30;62.80;;;;;;5058267;28;19936;-73
2021/03/15 05:40:31;;;;;;;;;;;16.30;62.80;;;;;;5060815;28;20251;-73
2021/03/15 05:42:58;;;;;;;;;;;16.30;62.80;;;;;;5047043;28;19908;-72
2021/03/15 05:45:25;;;;;;;;;;;16.30;62.80;;;;;;5051368;28;20365;-73
2021/03/15 05:47:57;;;;;;;;;;;16.20;62.80;;;;;;5062320;28;19954;-71
2021/03/15 05:50:34;;;;;;;;;;;16.30;62.80;;;;;;5056591;28;19908;-72
2021/03/15 05:53:19;;;;;;;;;;;16.30;62.80;;;;;;5048505;28;19962;-73
2021/03/15 05:55:51;;;;;;;;;;;16.30;62.80;;;;;;5061905;28;20342;-73
2021/03/15 05:58:48;;;;;;;;;;;16.30;62.70;;;;;;5065133;28;19920;-72
2021/03/15 06:01:23;;;;;;;;;;;16.30;62.70;;;;;;5061526;28;19924;-72
2021/03/15 06:04:00;;;;;;;;;;;16.30;62.70;;;;;;5061915;28;19915;-74
2021/03/15 06:06:31;;;;;;;;;;;16.30;62.70;;;;;;5066412;28;19908;-72
2021/03/15 06:09:00;;;;;;;;;;;16.30;62.60;;;;;;5066893;28;19908;-72
2021/03/15 06:11:26;;;;;;;;;;;16.30;62.60;;;;;;5062112;28;19951;-73
2021/03/15 06:13:52;;;;;;;;;;;16.30;62.60;;;;;;5055881;28;20321;-75
2021/03/15 06:16:18;;;;;;;;;;;16.30;62.60;;;;;;5061867;28;19921;-72
2021/03/15 06:18:44;;;;;;;;;;;16.30;62.60;;;;;;5055443;28;19916;-72
2021/03/15 06:21:10;;;;;;;;;;;16.30;62.60;;;;;;5057663;28;20315;-72
2021/03/15 06:23:37;;;;;;;;;;;16.30;62.60;;;;;;5057478;28;19912;-73
2021/03/15 06:26:02;;;;;;;;;;;16.30;62.60;;;;;;5067690;28;20362;-72
2021/03/15 06:28:28;;;;;;;;;;;16.30;62.60;;;;;;5061935;28;19919;-74
2021/03/15 06:31:00;;;;;;;;;;;16.30;62.60;;;;;;5053204;28;19963;-72
2021/03/15 06:33:26;;;;;;;;;;;16.30;62.60;;;;;;5077395;28;19913;-73
2021/03/15 06:35:57;;;;;;;;;;;16.30;62.60;;;;;;5049292;28;19916;-72
2021/03/15 06:38:23;;;;;;;;;;;16.30;62.50;;;;;;5065533;28;20256;-73
2021/03/15 06:40:49;;;;;;;;;;;16.30;62.50;;;;;;5060074;28;19909;-73
2021/03/15 06:43:15;;;;;;;;;;;16.30;62.50;;;;;;5044213;28;19931;-72
2021/03/15 06:45:45;;;;;;;;;;;16.30;62.40;;;;;;5062161;28;19958;-75
2021/03/15 06:48:10;;;;;;;;;;;16.40;62.40;;;;;;5060992;28;19956;-73
2021/03/15 06:50:36;;;;;;;;;;;16.40;62.30;;;;;;5038441;28;19940;-72
2021/03/15 06:53:02;;;;;;;;;;;16.30;62.20;;;;;;5062426;28;19982;-72
2021/03/15 06:55:48;;;;;;;;;;;16.40;62.20;;;;;;5044681;28;19958;-73
2021/03/15 06:58:19;;;;;;;;;;;16.40;62.20;;;;;;5065002;28;19934;-72
2021/03/15 07:00:45;;;;;;;;;;;16.30;62.20;;;;;;5066142;28;20286;-72
2021/03/15 07:03:20;;;;;;;;;;;16.40;62.10;;;;;;5067827;28;20572;-72
2021/03/15 07:05:54;;;;;;;;;;;16.40;62.10;;;;;;5047273;28;19924;-72
2021/03/15 07:08:19;;;;;;;;;;;16.40;62.10;;;;;;5047482;28;19917;-72
2021/03/15 07:10:45;;;;;;;;;;;16.40;62.10;;;;;;5062902;28;19939;-72
2021/03/15 07:13:12;;;;;;;;;;;16.40;62.00;;;;;;5051105;28;19912;-73
2021/03/15 07:15:39;;;;;;;;;;;16.40;62.10;;;;;;5051273;28;19917;-73
2021/03/15 07:18:27;;;;;;;;;;;16.40;62.10;;;;;;5053257;28;19935;-72
2021/03/15 07:20:57;;;;;;;;;;;16.40;62.00;;;;;;5048119;28;19976;-72
2021/03/15 07:23:43;;;;;;;;;;;16.40;62.00;;;;;;5064938;28;20250;-72
2021/03/15 07:26:15;;;;;;;;;;;16.40;62.10;;;;;;5071941;28;19938;-74
2021/03/15 07:28:42;;;;;;;;;;;16.40;62.00;;;;;;5064912;28;19989;-73
2021/03/15 07:31:19;;;;;;;;;;;16.40;62.10;;;;;;5042908;28;19912;-73
2021/03/15 07:34:05;;;;;;;;;;;16.40;62.10;;;;;;5066676;28;20020;-73
2021/03/15 07:36:43;;;;;;;;;;;16.40;62.00;;;;;;5052764;28;20398;-73
2021/03/15 07:39:09;;;;;;;;;;;16.40;62.10;;;;;;5061827;28;19927;-73
2021/03/15 07:41:41;;;;;;;;;;;16.40;62.00;;;;;;5065763;28;19913;-73
2021/03/15 07:44:26;;;;;;;;;;;16.40;62.00;;;;;;5047261;28;20365;-73
2021/03/15 07:46:53;;;;;;;;;;;16.40;62.00;;;;;;5049122;28;19920;-73
2021/03/15 07:49:23;;;;;;;;;;;16.40;62.00;;;;;;5045830;28;20292;-74
2021/03/15 07:51:53;;;;;;;;;;;16.40;62.00;;;;;;5064632;28;19958;-73
2021/03/15 07:54:22;;;;;;;;;;;16.40;62.00;;;;;;5058351;28;20000;-73
2021/03/15 07:56:48;;;;;;;;;;;16.40;62.00;;;;;;5068477;28;20373;-73
2021/03/15 07:59:14;;;;;;;;;;;16.40;61.90;;;;;;5053004;28;19924;-73
2021/03/15 08:01:40;;;;;;;;;;;16.50;61.90;;;;;;5063728;28;19916;-73
2021/03/15 08:04:05;;;;;;;;;;;16.50;61.80;;;;;;5049235;28;19923;-74
2021/03/15 08:06:31;;;;;;;;;;;16.50;61.80;;;;;;5050028;28;19912;-73
2021/03/15 08:08:56;;;;;;;;;;;16.50;61.80;;;;;;5063839;28;19916;-72
2021/03/15 08:11:27;;;;;;;;;;;16.50;61.70;;;;;;5066791;28;20502;-74
2021/03/15 08:13:55;;;;;;;;;;;16.50;61.70;;;;;;5068489;28;19913;-73
2021/03/15 08:16:23;;;;;;;;;;;16.50;61.70;;;;;;5048541;28;19966;-73
2021/03/15 08:18:54;;;;;;;;;;;16.50;61.60;;;;;;5065554;28;19916;-72
2021/03/15 08:21:22;;;;;;;;;;;16.50;61.60;;;;;;5072070;28;20057;-73
2021/03/15 08:23:48;;;;;;;;;;;16.50;61.60;;;;;;5081089;28;21234;-73
2021/03/15 08:26:16;;;;;;;;;;;16.50;61.50;;;;;;5066420;28;19913;-73
2021/03/15 08:28:42;;;;;;;;;;;16.60;61.50;;;;;;5075393;28;19916;-73
2021/03/15 08:31:40;;;;;;;;;;;16.60;61.50;;;;;;5046611;28;19928;-73
2021/03/15 08:34:06;;;;;;;;;;;16.60;61.50;;;;;;5018341;28;19916;-73
2021/03/15 08:36:38;;;;;;;;;;;16.50;61.50;;;;;;5047423;28;20342;-76
2021/03/15 08:39:22;;;;;;;;;;;16.50;61.50;;;;;;5068069;28;19920;-74
2021/03/15 08:41:48;;;;;;;;;;;16.60;61.40;;;;;;5067196;28;19966;-73
2021/03/15 08:44:33;;;;;;;;;;;16.60;61.30;;;;;;5062016;28;19920;-72
2021/03/15 08:46:59;;;;;;;;;;;16.70;61.30;;;;;;5043088;28;19913;-73
2021/03/15 08:49:30;;;;;;;;;;;16.70;61.20;;;;;;5061641;28;19967;-73
2021/03/15 08:51:57;;;;;;;;;;;16.70;61.30;;;;;;5052209;28;21871;-73
2021/03/15 08:54:42;;;;;;;;;;;16.70;61.30;;;;;;5070383;28;19913;-73
2021/03/15 08:57:27;;;;;;;;;;;16.60;61.20;;;;;;5047853;28;19924;-74
2021/03/15 08:59:53;;;;;;;;;;;16.60;61.20;;;;;;5076082;28;20025;-73
2021/03/15 09:02:38;;;;;;;;;;;16.60;61.20;;;;;;5044915;28;19970;-73
2021/03/15 09:05:22;;;;;;;;;;;16.70;61.20;;;;;;5061123;28;20359;-73
2021/03/15 09:07:48;;;;;;;;;;;16.70;61.20;;;;;;5062375;28;19952;-73
2021/03/15 09:10:22;;;;;;;;;;;16.70;61.10;;;;;;5045240;28;19944;-73
2021/03/15 09:13:07;;;;;;;;;;;16.70;61.10;;;;;;5044767;28;20226;-74
2021/03/15 09:15:33;;;;;;;;;;;16.70;61.10;;;;;;5060930;28;19912;-73
2021/03/15 09:17:58;;;;;;;;;;;16.70;61.10;;;;;;5062135;28;19920;-73
2021/03/15 09:20:24;;;;;;;;;;;16.70;61.00;;;;;;5067752;28;20025;-74
2021/03/15 09:22:49;;;;;;;;;;;16.80;61.00;;;;;;5055274;28;19913;-75
2021/03/15 09:25:19;;;;;;;;;;;16.80;60.90;;;;;;5049346;28;20362;-74
2021/03/15 09:27:52;;;;;;;;;;;16.70;60.90;;;;;;5050662;28;19935;-77
2021/03/15 09:30:19;;;;;;;;;;;16.70;60.90;;;;;;5052343;28;19924;-74
2021/03/15 09:32:45;;;;;;;;;;;16.70;60.90;;;;;;5042120;28;19912;-73
2021/03/15 09:35:15;;;;;;;;;;;16.80;60.80;;;;;;5060883;28;19927;-75
2021/03/15 09:37:42;;;;;;;;;;;16.80;60.80;;;;;;5058373;28;19912;-73
2021/03/15 09:40:11;;;;;;;;;;;16.80;60.80;;;;;;5067846;28;20798;-74
2021/03/15 09:42:41;;;;;;;;;;;16.80;60.70;;;;;;5050770;28;19912;-75
2021/03/15 09:45:07;;;;;;;;;;;16.80;60.80;;;;;;5068375;28;19913;-76
2021/03/15 09:47:33;;;;;;;;;;;16.80;60.80;;;;;;5049015;28;19912;-75
2021/03/15 09:49:58;;;;;;;;;;;16.80;60.80;;;;;;5079337;28;21696;-76
2021/03/15 09:52:24;;;;;;;;;;;16.70;60.90;;;;;;5058279;28;19947;-74
2021/03/15 09:54:51;;;;;;;;;;;16.80;60.90;;;;;;5060872;28;19917;-75
2021/03/15 09:57:17;;;;;;;;;;;16.70;60.90;;;;;;5053794;28;19952;-74
2021/03/15 09:59:43;;;;;;;;;;;16.70;60.90;;;;;;5044451;28;20012;-74
2021/03/15 10:02:09;;;;;;;;;;;16.70;60.90;;;;;;5054042;28;19999;-75
2021/03/15 10:04:48;;;;;;;;;;;16.80;60.90;;;;;;5059462;28;19916;-74
2021/03/15 10:07:14;;;;;;;;;;;16.80;60.90;;;;;;5047979;28;20429;-72
2021/03/15 10:09:40;;;;;;;;;;;16.80;60.90;;;;;;5050967;28;19999;-73
2021/03/15 10:12:17;;;;;;;;;;;16.70;60.90;;;;;;5061931;28;19920;-74
2021/03/15 10:14:42;;;;;;;;;;;16.70;61.00;;;;;;5061593;28;20409;-74
2021/03/15 10:17:08;;;;;;;;;;;16.80;61.00;;;;;;5039441;28;20016;-73
2021/03/15 10:19:34;;;;;;;;;;;16.60;61.10;;;;;;5046790;28;19935;-74
2021/03/15 10:22:14;;;;;;;;;;;16.70;61.10;;;;;;5055756;28;19944;-73
2021/03/15 10:24:40;;;;;;;;;;;16.60;61.20;;;;;;5049129;28;19912;-74
2021/03/15 10:27:08;;;;;;;;;;;16.60;61.20;;;;;;5064583;28;19924;-74
2021/03/15 10:29:34;;;;;;;;;;;16.60;61.20;;;;;;5075233;28;19924;-74
2021/03/15 10:32:01;;;;;;;;;;;16.70;61.10;;;;;;5041490;28;19916;-76
2021/03/15 10:34:27;;;;;;;;;;;16.70;61.00;;;;;;5070071;28;20369;-76
2021/03/15 10:36:53;;;;;;;;;;;16.70;60.90;;;;;;5052819;28;19912;-74
2021/03/15 10:39:20;;;;;;;;;;;16.80;60.80;;;;;;5071174;28;19981;-75
2021/03/15 10:41:45;;;;;;;;;;;16.80;60.80;;;;;;5067508;28;20042;-76
2021/03/15 10:44:11;;;;;;;;;;;16.80;60.80;;;;;;5063570;28;20374;-75
2021/03/15 10:46:47;;;;;;;;;;;16.80;60.80;;;;;;5065074;28;19923;-76
2021/03/15 10:49:16;;;;;;;;;;;16.80;60.90;;;;;;5061265;28;20292;-76
2021/03/15 10:51:42;;;;;;;;;;;16.80;60.80;;;;;;5058983;28;19921;-76
2021/03/15 10:54:08;;;;;;;;;;;16.80;60.80;;;;;;5050338;28;19999;-75
2021/03/15 10:56:33;;;;;;;;;;;16.80;60.80;;;;;;5063758;28;19919;-75
2021/03/15 10:58:59;;;;;;;;;;;16.80;60.80;;;;;;5041467;28;19935;-75
2021/03/15 11:01:25;;;;;;;;;;;16.80;60.80;;;;;;5063526;28;19920;-76
2021/03/15 11:03:51;;;;;;;;;;;16.80;60.80;;;;;;5071446;28;19919;-75
2021/03/15 11:06:19;;;;;;;;;;;16.80;60.80;;;;;;5063658;28;20007;-75
2021/03/15 11:08:51;;;;;;;;;;;16.80;60.80;;;;;;5065679;28;19966;-75
2021/03/15 11:11:19;;;;;;;;;;;16.70;60.90;;;;;;5039749;28;19920;-77
2021/03/15 11:13:49;;;;;;;;;;;16.70;61.00;;;;;;5057603;28;20366;-76
2021/03/15 11:16:35;;;;;;;;;;;16.70;61.00;;;;;;5041103;28;19917;-77
2021/03/15 11:19:04;;;;;;;;;;;16.70;61.10;;;;;;5048300;28;19927;-75
2021/03/15 11:21:37;;;;;;;;;;;16.70;61.10;;;;;;5077720;28;19913;-75
2021/03/15 11:24:04;;;;;;;;;;;16.70;61.10;;;;;;5078359;28;19943;-74
2021/03/15 11:27:04;;;;;;;;;;;16.70;61.10;;;;;;5042753;28;19920;-75
2021/03/15 11:29:37;;;;;;;;;;;16.60;61.00;;;;;;5032906;28;19967;-77
2021/03/15 11:32:08;;;;;;;;;;;16.60;61.00;;;;;;5064669;28;19917;-77
2021/03/15 11:34:43;;;;;;;;;;;16.70;61.00;;;;;;5067334;28;20342;-76
2021/03/15 11:37:09;;;;;;;;;;;16.70;60.90;;;;;;5068885;28;19919;-75
2021/03/15 11:39:38;;;;;;;;;;;16.70;60.80;;;;;;5066807;28;20011;-75
2021/03/15 11:42:04;;;;;;;;;;;16.80;60.80;;;;;;5067467;28;19920;-75
2021/03/15 11:44:30;;;;;;;;;;;16.80;60.70;;;;;;5047536;28;20336;-76
2021/03/15 11:46:55;;;;;;;;;;;16.80;60.60;;;;;;5053252;28;20328;-75
2021/03/15 11:49:21;;;;;;;;;;;16.80;60.60;;;;;;5065065;28;20350;-75
2021/03/15 11:51:53;;;;;;;;;;;16.80;60.60;;;;;;5077035;28;20330;-75
2021/03/15 11:54:19;;;;;;;;;;;16.80;60.80;;;;;;5061239;28;20263;-74
2021/03/15 11:56:50;;;;;;;;;;;16.80;60.80;;;;;;5069369;28;19912;-74
2021/03/15 11:59:16;;;;;;;;;;;16.80;60.70;;;;;;5067127;28;20378;-75
2021/03/15 12:01:41;;;;;;;;;;;16.80;60.60;;;;;;5042795;28;19916;-78
2021/03/15 12:04:07;;;;;;;;;;;16.80;60.50;;;;;;5051474;28;19920;-75
2021/03/15 12:06:32;;;;;;;;;;;16.80;60.50;;;;;;5050627;28;20537;-77
2021/03/15 12:09:00;;;;;;;;;;;16.80;60.60;;;;;;5048332;28;19944;-75
2021/03/15 12:11:26;;;;;;;;;;;16.80;60.60;;;;;;5057294;28;19916;-75
2021/03/15 12:13:51;;;;;;;;;;;16.80;60.60;;;;;;5065339;28;20003;-76
2021/03/15 12:16:17;;;;;;;;;;;16.80;60.70;;;;;;5046397;28;19912;-76
2021/03/15 12:18:42;;;;;;;;;;;16.80;60.70;;;;;;5069171;28;19920;-75
2021/03/15 12:21:08;;;;;;;;;;;16.80;60.80;;;;;;5062164;28;19913;-76
2021/03/15 12:23:33;;;;;;;;;;;16.80;60.70;;;;;;5062720;28;19966;-75
2021/03/15 12:25:59;;;;;;;;;;;16.80;60.70;;;;;;5076677;28;19919;-75
2021/03/15 12:28:24;;;;;;;;;;;16.80;60.70;;;;;;5032181;28;19939;-75
2021/03/15 12:30:50;;;;;;;;;;;16.80;60.70;;;;;;5042146;28;19932;-75
2021/03/15 12:33:15;;;;;;;;;;;16.80;60.70;;;;;;5027115;28;19974;-76
2021/03/15 12:35:41;;;;;;;;;;;16.80;60.80;;;;;;5049882;28;20331;-75
2021/03/15 12:38:06;;;;;;;;;;;16.70;60.80;;;;;;5050636;28;19932;-77
2021/03/15 12:40:32;;;;;;;;;;;16.70;60.90;;;;;;5063457;28;20749;-76
2021/03/15 12:42:57;;;;;;;;;;;16.70;60.90;;;;;;5040818;28;19920;-75
2021/03/15 12:45:23;;;;;;;;;;;16.70;60.90;;;;;;5039362;28;19912;-75
2021/03/15 12:47:49;;;;;;;;;;;16.70;61.00;;;;;;5039620;28;20314;-75
2021/03/15 12:50:15;;;;;;;;;;;16.70;61.00;;;;;;5032485;28;20259;-75
2021/03/15 12:52:41;;;;;;;;;;;16.60;61.10;;;;;;5035087;28;19913;-74
2021/03/15 12:55:07;;;;;;;;;;;16.60;61.10;;;;;;5030008;28;19920;-75
2021/03/15 12:57:32;;;;;;;;;;;16.60;61.20;;;;;;5045705;28;19913;-74
2021/03/15 12:59:58;;;;;;;;;;;16.60;61.20;;;;;;5063022;28;20366;-75
2021/03/15 13:02:24;;;;;;;;;;;16.60;61.30;;;;;;5025849;28;20039;-74
2021/03/15 13:04:49;;;;;;;;;;;16.60;61.30;;;;;;5031725;28;19925;-74
2021/03/15 13:07:15;;;;;;;;;;;16.60;61.30;;;;;;5063980;28;20627;-75
2021/03/15 13:09:40;;;;;;;;;;;16.50;61.30;;;;;;5046442;28;19921;-75
2021/03/15 13:12:07;;;;;;;;;;;16.60;61.40;;;;;;5047630;28;19923;-75
2021/03/15 13:14:32;;;;;;;;;;;16.60;61.30;;;;;;5041516;28;19913;-76
2021/03/15 13:16:58;;;;;;;;;;;16.60;61.30;;;;;;5062952;28;20370;-74
2021/03/15 13:19:23;;;;;;;;;;;16.60;61.30;;;;;;5048614;28;20311;-75
2021/03/15 13:21:49;;;;;;;;;;;16.60;61.30;;;;;;5034942;28;20433;-76
2021/03/15 13:24:14;;;;;;;;;;;16.60;61.30;;;;;;5038585;28;19913;-75
2021/03/15 13:26:40;;;;;;;;;;;16.60;61.20;;;;;;5048302;28;19928;-75
2021/03/15 13:29:06;;;;;;;;;;;16.70;61.20;;;;;;5044760;28;20007;-74
2021/03/15 13:31:32;;;;;;;;;;;16.70;61.10;;;;;;5041784;28;19927;-75
2021/03/15 13:33:58;;;;;;;;;;;16.70;60.90;;;;;;5045135;28;19917;-75
2021/03/15 13:36:26;;;;;;;;;;;16.70;60.80;;;;;;5032038;28;19962;-75
2021/03/15 13:38:52;;;;;;;;;;;16.80;60.70;;;;;;5043120;28;19932;-75
2021/03/15 13:41:17;;;;;;;;;;;16.70;60.80;;;;;;5063344;28;19953;-75
2021/03/15 13:43:43;;;;;;;;;;;16.70;60.80;;;;;;5053063;28;19966;-73
2021/03/15 13:46:09;;;;;;;;;;;16.70;60.90;;;;;;5058009;28;19920;-74
2021/03/15 13:48:35;;;;;;;;;;;16.70;61.00;;;;;;5045855;28;19913;-73
2021/03/15 13:51:00;;;;;;;;;;;16.70;61.10;;;;;;5030872;28;20643;-74
2021/03/15 13:53:26;;;;;;;;;;;16.70;61.10;;;;;;5045572;28;19917;-73
2021/03/15 13:55:51;;;;;;;;;;;16.60;61.10;;;;;;5041516;28;19936;-73
2021/03/15 13:58:17;;;;;;;;;;;16.60;61.10;;;;;;5050036;28;19913;-73
2021/03/15 14:00:42;;;;;;;;;;;16.60;61.10;;;;;;5026286;28;20287;-73
2021/03/15 14:03:08;;;;;;;;;;;16.60;61.20;;;;;;5042191;28;20054;-73
2021/03/15 14:05:34;;;;;;;;;;;16.60;61.20;;;;;;5050588;28;20021;-73
2021/03/15 14:07:59;;;;;;;;;;;16.60;61.30;;;;;;5051372;28;19917;-76
2021/03/15 14:10:25;;;;;;;;;;;16.50;61.40;;;;;;5034010;28;19913;-73
2021/03/15 14:12:50;;;;;;;;;;;16.50;61.40;;;;;;5056218;28;19920;-75
2021/03/15 14:15:16;;;;;;;;;;;16.50;61.50;;;;;;5041781;28;19917;-74
2021/03/15 14:17:42;;;;;;;;;;;16.50;61.50;;;;;;5022192;28;19917;-74
2021/03/15 14:20:08;;;;;;;;;;;16.50;61.50;;;;;;5042954;28;19928;-73
2021/03/15 14:22:34;;;;;;;;;;;16.50;61.50;;;;;;5047250;28;19920;-73